createdAt,value
2023-02-12T00:00:06.516Z,3.00
2023-02-12T00:02:34.020Z,1.80
2023-02-12T00:05:01.147Z,2.40
2023-02-12T00:07:31.610Z,3.10
2023-02-12T00:09:58.709Z,2.93
2023-02-12T00:12:26.255Z,4.17
2023-02-12T00:14:53.801Z,4.17
2023-02-12T00:17:20.914Z,3.80
2023-02-12T00:19:49.226Z,3.57
2023-02-12T00:22:16.330Z,2.20
2023-02-12T00:24:43.437Z,3.33
2023-02-12T00:27:10.575Z,5.00
2023-02-12T00:29:38.108Z,3.03
2023-02-12T00:32:05.234Z,3.17
2023-02-12T00:34:33.162Z,4.40
2023-02-12T00:37:00.628Z,4.93
2023-02-12T00:39:27.809Z,3.87
2023-02-12T00:41:55.334Z,3.50
2023-02-12T00:44:22.411Z,4.27
2023-02-12T00:46:49.838Z,4.57
2023-02-12T00:49:19.042Z,3.47
2023-02-12T00:51:46.600Z,5.63
2023-02-12T00:54:14.051Z,2.90
2023-02-12T00:56:41.678Z,4.50
2023-02-12T00:59:08.800Z,4.13
2023-02-12T01:01:36.294Z,3.53
2023-02-12T01:04:03.494Z,2.57
2023-02-12T01:06:30.574Z,2.80
2023-02-12T01:08:57.697Z,3.67
2023-02-12T01:11:24.755Z,5.07
2023-02-12T01:13:51.830Z,4.50
2023-02-12T01:16:20.893Z,2.67
2023-02-12T01:18:48.497Z,2.40
2023-02-12T01:21:17.511Z,1.80
2023-02-12T01:23:44.811Z,3.03
2023-02-12T01:26:12.383Z,3.60
2023-02-12T01:28:40.509Z,3.60
2023-02-12T01:31:16.244Z,3.30
2023-02-12T01:33:43.870Z,3.63
2023-02-12T01:36:11.760Z,3.23
2023-02-12T01:38:38.934Z,3.70
2023-02-12T01:41:07.301Z,4.13
2023-02-12T01:43:35.906Z,3.33
2023-02-12T01:46:03.172Z,3.13
2023-02-12T01:48:33.031Z,4.80
2023-02-12T01:51:01.002Z,2.03
2023-02-12T01:53:30.448Z,3.73
2023-02-12T01:55:58.855Z,2.63
2023-02-12T01:58:27.712Z,4.60
2023-02-12T02:00:55.038Z,4.10
2023-02-12T02:03:22.293Z,3.70
2023-02-12T02:05:57.281Z,2.37
2023-02-12T02:08:24.618Z,3.00
2023-02-12T02:10:52.123Z,3.07
2023-02-12T02:13:37.913Z,1.67
2023-02-12T02:16:11.893Z,2.83
2023-02-12T02:18:49.473Z,3.37
2023-02-12T02:21:36.059Z,2.30
2023-02-12T02:24:06.301Z,3.70
2023-02-12T02:26:36.859Z,2.10
2023-02-12T02:29:10.786Z,2.80
2023-02-12T02:31:40.924Z,3.50
2023-02-12T02:34:08.004Z,3.97
2023-02-12T02:36:57.990Z,3.80
2023-02-12T02:39:46.025Z,4.57
2023-02-12T02:42:22.424Z,3.00
2023-02-12T02:44:58.424Z,2.27
2023-02-12T02:47:29.887Z,3.13
2023-02-12T02:49:59.664Z,2.90
2023-02-12T02:52:34.330Z,1.70
2023-02-12T02:55:05.803Z,3.70
2023-02-12T02:57:37.301Z,3.47
2023-02-12T03:00:24.639Z,4.40
2023-02-12T03:02:54.925Z,3.77
2023-02-12T03:05:28.156Z,5.03
2023-02-12T03:07:58.864Z,2.90
2023-02-12T03:10:31.528Z,2.23
2023-02-12T03:13:04.942Z,3.90
2023-02-12T03:15:40.207Z,2.27
2023-02-12T03:18:11.134Z,3.37
2023-02-12T03:20:44.120Z,4.87
2023-02-12T03:23:13.534Z,4.17
2023-02-12T03:25:47.811Z,2.67
2023-02-12T03:28:23.786Z,2.10
2023-02-12T03:33:57.664Z,3.00
2023-02-12T03:36:27.908Z,2.80
2023-02-12T03:38:56.126Z,3.43
2023-02-12T03:41:26.619Z,3.93
2023-02-12T03:43:57.233Z,4.17
2023-02-12T03:46:28.720Z,4.87
2023-02-12T03:49:12.146Z,3.20
2023-02-12T03:51:40.527Z,4.00
2023-02-12T03:54:09.022Z,4.63
2023-02-12T03:56:39.212Z,3.33
2023-02-12T03:59:06.704Z,2.40
2023-02-12T04:01:34.911Z,3.13
2023-02-12T04:04:04.607Z,5.90
2023-02-12T04:06:31.979Z,2.10
2023-02-12T04:09:01.930Z,3.03
2023-02-12T04:11:38.694Z,1.93
2023-02-12T04:14:15.316Z,4.47
2023-02-12T04:16:46.721Z,4.40
2023-02-12T04:19:16.094Z,3.10
2023-02-12T04:22:02.173Z,2.50
2023-02-12T04:24:37.085Z,2.50
2023-02-12T04:27:19.149Z,2.13
2023-02-12T04:29:56.660Z,3.07
2023-02-12T04:32:38.927Z,2.30
2023-02-12T04:35:15.641Z,1.23
2023-02-12T04:37:44.649Z,3.10
2023-02-12T04:40:16.329Z,4.37
2023-02-12T04:42:47.824Z,2.87
2023-02-12T04:45:16.531Z,3.33
2023-02-12T04:47:43.681Z,2.33
2023-02-12T04:50:10.947Z,2.07
2023-02-12T04:52:38.472Z,3.90
2023-02-12T04:55:05.653Z,4.30
2023-02-12T04:57:33.060Z,2.80
2023-02-12T05:00:00.156Z,2.57
2023-02-12T05:02:27.611Z,2.80
2023-02-12T05:04:55.128Z,2.87
2023-02-12T05:07:22.217Z,2.00
2023-02-12T05:09:49.787Z,4.87
2023-02-12T05:12:17.237Z,6.07
2023-02-12T05:14:44.300Z,2.63
2023-02-12T05:17:11.459Z,2.50
2023-02-12T05:19:38.534Z,2.93
2023-02-12T05:22:05.793Z,6.00
2023-02-12T05:24:33.081Z,3.70
2023-02-12T05:27:00.644Z,6.43
2023-02-12T05:29:27.704Z,3.43
2023-02-12T05:31:54.873Z,6.10
2023-02-12T05:34:22.068Z,4.23
2023-02-12T05:36:49.256Z,2.00
2023-02-12T05:39:17.022Z,4.17
2023-02-12T05:41:44.275Z,3.10
2023-02-12T05:44:12.100Z,4.83
2023-02-12T05:46:39.834Z,3.00
2023-02-12T05:49:07.045Z,2.67
2023-02-12T05:51:35.051Z,5.60
2023-02-12T05:54:03.766Z,2.93
2023-02-12T05:56:35.757Z,3.93
2023-02-12T05:59:04.953Z,3.63
2023-02-12T06:01:36.753Z,3.13
2023-02-12T06:04:04.955Z,4.13
2023-02-12T06:06:32.939Z,3.13
2023-02-12T06:09:00.542Z,2.43
2023-02-12T06:11:28.194Z,2.97
2023-02-12T06:13:55.285Z,4.23
2023-02-12T06:16:24.010Z,2.40
2023-02-12T06:18:51.507Z,3.30
2023-02-12T06:21:19.587Z,4.47
2023-02-12T06:23:47.029Z,4.23
2023-02-12T06:26:14.185Z,4.93
2023-02-12T06:28:41.328Z,3.50
2023-02-12T06:31:22.638Z,3.50
2023-02-12T06:33:49.788Z,3.20
2023-02-12T06:36:17.240Z,3.43
2023-02-12T06:38:44.351Z,2.90
2023-02-12T06:41:11.598Z,3.17
2023-02-12T06:43:38.827Z,2.10
2023-02-12T06:46:06.707Z,3.23
2023-02-12T06:48:34.223Z,3.60
2023-02-12T06:51:11.646Z,3.70
2023-02-12T06:53:39.293Z,4.07
2023-02-12T06:56:11.141Z,2.10
2023-02-12T06:58:39.020Z,5.83
2023-02-12T07:01:20.069Z,4.43
2023-02-12T07:03:51.355Z,3.60
2023-02-12T07:06:18.828Z,3.57
2023-02-12T07:08:46.585Z,4.80
2023-02-12T07:11:14.028Z,3.50
2023-02-12T07:13:42.341Z,4.47
2023-02-12T07:16:13.765Z,2.60
2023-02-12T07:18:41.543Z,4.80
2023-02-12T07:21:09.005Z,4.67
2023-02-12T07:23:36.646Z,2.93
2023-02-12T07:26:05.756Z,6.40
2023-02-12T07:28:35.956Z,3.30
2023-02-12T07:31:09.078Z,4.37
2023-02-12T07:33:36.665Z,5.17
2023-02-12T07:36:04.750Z,4.13
2023-02-12T07:38:31.853Z,6.33
2023-02-12T07:41:15.164Z,4.70
2023-02-12T07:43:43.810Z,3.37
2023-02-12T07:46:16.805Z,4.67
2023-02-12T07:48:44.652Z,5.77
2023-02-12T07:51:13.737Z,5.47
2023-02-12T07:53:40.980Z,5.70
2023-02-12T07:56:16.152Z,4.77
2023-02-12T07:58:47.161Z,5.27
2023-02-12T08:01:14.449Z,4.20
2023-02-12T08:03:41.799Z,4.50
2023-02-12T08:06:12.909Z,4.50
2023-02-12T08:08:40.235Z,6.40
2023-02-12T08:11:08.700Z,3.47
2023-02-12T08:13:36.695Z,5.03
2023-02-12T08:16:05.142Z,4.93
2023-02-12T08:18:32.393Z,5.40
2023-02-12T08:21:03.898Z,4.80
2023-02-12T08:23:31.232Z,2.77
2023-02-12T08:26:17.123Z,4.50
2023-02-12T08:28:46.004Z,5.37
2023-02-12T08:31:14.921Z,5.00
2023-02-12T08:33:42.179Z,5.40
2023-02-12T08:36:11.373Z,4.83
2023-02-12T08:38:39.057Z,3.90
2023-02-12T08:41:08.109Z,5.43
2023-02-12T08:43:35.360Z,3.50
2023-02-12T08:46:03.691Z,6.53
2023-02-12T08:48:30.924Z,2.57
2023-02-12T08:50:58.000Z,4.20
2023-02-12T08:53:26.214Z,5.10
2023-02-12T08:55:53.573Z,6.80
2023-02-12T08:58:20.763Z,5.93
2023-02-12T09:00:48.203Z,8.93
2023-02-12T09:03:15.287Z,3.20
2023-02-12T09:05:42.761Z,6.83
2023-02-12T09:08:09.927Z,3.03
2023-02-12T09:10:43.997Z,5.30
2023-02-12T09:13:12.088Z,4.40
2023-02-12T09:15:40.004Z,4.20
2023-02-12T09:18:07.300Z,5.97
2023-02-12T09:20:35.000Z,4.60
2023-02-12T09:23:02.539Z,4.30
2023-02-12T09:25:29.769Z,4.70
2023-02-12T09:27:57.335Z,3.13
2023-02-12T09:30:24.461Z,4.20
2023-02-12T09:32:51.809Z,6.03
2023-02-12T09:35:19.573Z,4.00
2023-02-12T09:37:46.701Z,8.83
2023-02-12T09:40:26.606Z,4.57
2023-02-12T09:43:04.396Z,8.10
2023-02-12T09:45:35.901Z,9.40
2023-02-12T09:48:13.340Z,5.27
2023-02-12T09:50:53.158Z,7.53
2023-02-12T09:53:23.276Z,3.20
2023-02-12T09:55:50.347Z,3.90
2023-02-12T09:58:20.856Z,7.20
2023-02-12T10:00:48.308Z,6.93
2023-02-12T10:03:17.542Z,6.57
2023-02-12T10:05:50.506Z,3.80
2023-02-12T10:08:39.683Z,7.70
2023-02-12T10:11:25.653Z,5.67
2023-02-12T10:13:55.798Z,7.43
2023-02-12T10:16:41.364Z,5.30
2023-02-12T10:19:21.914Z,12.23
2023-02-12T10:22:08.206Z,7.90
2023-02-12T10:25:14.128Z,7.60
2023-02-12T10:27:43.636Z,4.43
2023-02-12T10:30:29.336Z,8.63
2023-02-12T10:33:07.905Z,5.10
2023-02-12T10:35:35.718Z,4.27
2023-02-12T10:38:06.238Z,5.07
2023-02-12T10:40:34.883Z,4.10
2023-02-12T10:43:03.093Z,5.30
2023-02-12T10:45:34.490Z,5.80
2023-02-12T10:48:08.046Z,3.10
2023-02-12T10:50:41.640Z,4.97
2023-02-12T10:53:14.272Z,6.00
2023-02-12T10:55:41.386Z,4.77
2023-02-12T10:58:19.465Z,5.50
2023-02-12T11:00:48.094Z,6.10
2023-02-12T11:03:15.626Z,4.10
2023-02-12T11:05:45.350Z,9.00
2023-02-12T11:08:45.377Z,5.00
2023-02-12T11:11:13.821Z,6.33
2023-02-12T11:13:46.040Z,7.57
2023-02-12T11:16:16.768Z,7.77
2023-02-12T11:18:44.054Z,7.10
2023-02-12T11:21:12.705Z,5.43
2023-02-12T11:23:41.431Z,4.80
2023-02-12T11:26:20.883Z,5.90
2023-02-12T11:29:08.439Z,4.10
2023-02-12T11:31:37.139Z,5.80
2023-02-12T11:34:10.354Z,5.90
2023-02-12T11:36:39.329Z,4.17
2023-02-12T11:39:08.256Z,4.67
2023-02-12T11:41:40.114Z,5.47
2023-02-12T11:44:17.685Z,4.13
2023-02-12T11:46:52.472Z,4.33
2023-02-12T11:49:24.889Z,4.73
2023-02-12T11:51:52.275Z,4.17
2023-02-12T11:54:22.962Z,4.40
2023-02-12T11:56:50.307Z,3.97
2023-02-12T11:59:22.320Z,3.97
2023-02-12T12:01:52.120Z,2.97
2023-02-12T12:04:22.950Z,4.70
2023-02-12T12:06:56.416Z,6.13
2023-02-12T12:09:44.017Z,3.33
2023-02-12T12:12:21.011Z,4.50
2023-02-12T12:15:22.530Z,3.90
2023-02-12T12:18:15.652Z,2.90
2023-02-12T12:21:08.796Z,5.83
2023-02-12T12:23:38.447Z,3.37
2023-02-12T12:26:11.016Z,3.30
2023-02-12T12:28:42.893Z,4.47
2023-02-12T12:31:16.354Z,4.47
2023-02-12T12:33:52.833Z,3.47
2023-02-12T12:36:30.801Z,4.10
2023-02-12T12:39:10.342Z,3.40
2023-02-12T12:42:01.194Z,3.77
2023-02-12T12:44:34.593Z,2.60
2023-02-12T12:47:16.228Z,4.90
2023-02-12T12:49:44.216Z,3.37
2023-02-12T12:52:30.967Z,2.93
2023-02-12T12:54:58.013Z,4.07
2023-02-12T12:57:45.019Z,4.37
2023-02-12T13:00:37.540Z,3.43
2023-02-12T13:03:17.286Z,3.33
2023-02-12T13:06:09.045Z,3.50
2023-02-12T13:08:52.665Z,2.83
2023-02-12T13:11:36.094Z,2.60
2023-02-12T13:14:09.020Z,3.60
2023-02-12T13:16:49.995Z,3.47
2023-02-12T13:19:36.446Z,4.00
2023-02-12T13:22:09.835Z,4.30
2023-02-12T13:24:48.603Z,2.70
2023-02-12T13:27:17.950Z,2.57
2023-02-12T13:29:47.252Z,2.73
2023-02-12T13:32:18.227Z,3.83
2023-02-12T13:34:45.564Z,3.00
2023-02-12T13:37:18.269Z,2.33
2023-02-12T13:39:48.243Z,2.60
2023-02-12T13:42:28.579Z,2.33
2023-02-12T13:45:00.029Z,3.40
2023-02-12T13:47:33.559Z,2.73
2023-02-12T13:50:11.492Z,2.93
2023-02-12T13:52:44.504Z,2.30
2023-02-12T13:55:26.109Z,1.80
2023-02-12T13:58:12.080Z,2.13
2023-02-12T14:00:48.197Z,3.80
2023-02-12T14:03:16.118Z,2.63
2023-02-12T14:05:43.242Z,1.97
2023-02-12T14:08:27.406Z,3.37
2023-02-12T14:11:05.689Z,2.40
2023-02-12T14:13:35.792Z,2.33
2023-02-12T14:16:19.221Z,1.20
2023-02-12T14:18:46.680Z,2.37
2023-02-12T14:21:13.845Z,1.53
2023-02-12T14:23:42.259Z,1.90
2023-02-12T14:26:11.775Z,2.07
2023-02-12T14:28:45.470Z,1.30
2023-02-12T14:31:18.912Z,1.83
2023-02-12T14:33:53.921Z,2.30
2023-02-12T14:36:32.990Z,2.87
2023-02-12T14:39:19.439Z,2.10
2023-02-12T14:41:47.317Z,2.43
2023-02-12T14:44:23.037Z,1.67
2023-02-12T14:46:52.841Z,3.73
2023-02-12T14:49:37.743Z,1.50
2023-02-12T14:52:16.791Z,1.20
2023-02-12T14:55:04.578Z,2.23
2023-02-12T14:57:36.161Z,1.40
2023-02-12T15:00:13.809Z,1.30
2023-02-12T15:02:42.138Z,2.30
2023-02-12T15:05:33.154Z,1.60
2023-02-12T15:08:03.264Z,1.30
2023-02-12T15:10:33.674Z,2.57
2023-02-12T15:13:18.949Z,0.60
2023-02-12T15:15:46.396Z,1.07
2023-02-12T15:18:19.153Z,1.20
2023-02-12T15:23:41.573Z,0.80
2023-02-12T15:26:14.201Z,1.80
2023-02-12T15:28:42.582Z,0.80
2023-02-12T15:31:11.008Z,1.40
2023-02-12T15:33:46.413Z,3.27
2023-02-12T15:36:16.871Z,0.93
2023-02-12T15:38:45.226Z,1.43
2023-02-12T15:41:25.519Z,1.13
2023-02-12T15:43:53.079Z,1.90
2023-02-12T15:46:20.179Z,1.13
2023-02-12T15:48:47.857Z,1.20
2023-02-12T15:51:35.210Z,3.50
2023-02-12T15:54:05.106Z,1.30
2023-02-12T15:56:33.914Z,1.13
2023-02-12T15:59:02.493Z,1.13
2023-02-12T16:01:31.152Z,1.60
2023-02-12T16:03:59.077Z,0.53
2023-02-12T16:06:27.435Z,0.93
2023-02-12T16:09:06.093Z,1.40
2023-02-12T16:11:33.790Z,1.00
2023-02-12T16:14:05.691Z,0.47
2023-02-12T16:16:46.237Z,0.97
2023-02-12T16:19:29.554Z,1.03
2023-02-12T16:22:01.162Z,0.70
2023-02-12T16:24:48.660Z,2.47
2023-02-12T16:27:16.631Z,0.93
2023-02-12T16:29:48.806Z,1.00
2023-02-12T16:32:34.560Z,0.77
2023-02-12T16:35:04.624Z,0.80
2023-02-12T16:37:37.639Z,1.87
2023-02-12T16:40:13.665Z,1.37
2023-02-12T16:42:40.726Z,0.67
2023-02-12T16:45:26.880Z,2.00
2023-02-12T16:48:17.570Z,1.10
2023-02-12T16:50:52.859Z,3.90
2023-02-12T16:53:35.061Z,0.90
2023-02-12T16:56:03.617Z,0.97
2023-02-12T16:58:30.756Z,2.83
2023-02-12T17:00:58.894Z,1.67
2023-02-12T17:06:14.986Z,1.63
2023-02-12T17:08:42.714Z,2.20
2023-02-12T17:11:10.939Z,0.50
2023-02-12T17:13:38.108Z,0.67
2023-02-12T17:16:05.566Z,1.50
2023-02-12T17:18:35.807Z,1.40
2023-02-12T17:21:05.710Z,1.20
2023-02-12T17:23:33.252Z,0.90
2023-02-12T17:26:00.430Z,1.33
2023-02-12T17:28:27.710Z,1.30
2023-02-12T17:30:55.036Z,0.60
2023-02-12T17:33:23.102Z,0.97
2023-02-12T17:35:50.283Z,1.40
2023-02-12T17:38:17.645Z,1.10
2023-02-12T17:40:44.702Z,2.00
2023-02-12T17:43:14.611Z,1.80
2023-02-12T17:45:45.265Z,1.00
2023-02-12T17:48:13.454Z,2.20
2023-02-12T17:50:41.400Z,2.17
2023-02-12T17:53:08.641Z,1.23
2023-02-12T17:55:39.729Z,1.80
2023-02-12T17:58:06.866Z,2.17
2023-02-12T18:00:34.027Z,1.90
2023-02-12T18:03:01.215Z,2.10
2023-02-12T18:05:28.332Z,4.40
2023-02-12T18:07:56.140Z,1.90
2023-02-12T18:10:23.377Z,1.10
2023-02-12T18:12:50.523Z,2.40
2023-02-12T18:18:02.660Z,1.87
2023-02-12T18:20:29.711Z,3.93
2023-02-12T18:22:56.901Z,2.10
2023-02-12T18:25:24.386Z,3.83
2023-02-12T18:27:51.445Z,2.40
2023-02-12T18:30:18.703Z,2.30
2023-02-12T18:32:46.225Z,4.07
2023-02-12T18:35:14.607Z,2.03
2023-02-12T18:37:43.387Z,3.90
2023-02-12T18:40:10.807Z,1.53
2023-02-12T18:45:24.002Z,2.97
2023-02-12T18:47:51.405Z,1.70
2023-02-12T18:50:18.541Z,1.50
2023-02-12T18:52:45.684Z,2.77
2023-02-12T18:55:13.919Z,3.47
2023-02-12T18:57:40.972Z,2.63
2023-02-12T19:00:08.894Z,2.20
2023-02-12T19:02:36.341Z,3.23
2023-02-12T19:05:03.487Z,2.07
2023-02-12T19:07:31.088Z,2.80
2023-02-12T19:09:58.148Z,3.83
2023-02-12T19:12:25.988Z,2.13
2023-02-12T19:14:53.088Z,1.60
2023-02-12T19:17:20.191Z,1.13
2023-02-12T19:19:51.067Z,3.33
2023-02-12T19:22:19.263Z,3.23
2023-02-12T19:24:47.315Z,5.07
2023-02-12T19:27:14.978Z,3.00
2023-02-12T19:29:42.254Z,2.57
2023-02-12T19:32:09.340Z,2.67
2023-02-12T19:34:36.899Z,1.90
2023-02-12T19:37:04.111Z,1.87
2023-02-12T19:39:31.587Z,3.13
2023-02-12T19:41:58.811Z,3.93
2023-02-12T19:44:26.526Z,1.77
2023-02-12T19:46:53.758Z,0.90
2023-02-12T19:49:26.096Z,0.87
2023-02-12T19:51:53.187Z,1.33
2023-02-12T19:54:20.650Z,1.40
2023-02-12T19:56:47.770Z,0.90
2023-02-12T19:59:19.536Z,1.87
2023-02-12T20:01:48.175Z,0.93
2023-02-12T20:04:16.933Z,1.83
2023-02-12T20:06:45.913Z,0.67
2023-02-12T20:09:14.206Z,1.67
2023-02-12T20:11:41.669Z,2.50
2023-02-12T20:14:09.996Z,2.03
2023-02-12T20:16:39.752Z,2.07
2023-02-12T20:19:08.950Z,2.13
2023-02-12T20:21:36.435Z,1.43
2023-02-12T20:24:03.596Z,1.70
2023-02-12T20:26:31.342Z,1.70
2023-02-12T20:28:59.514Z,0.90
2023-02-12T20:31:29.116Z,0.70
2023-02-12T20:33:59.132Z,1.00
2023-02-12T20:36:26.672Z,0.80
2023-02-12T20:38:56.021Z,0.70
2023-02-12T20:41:23.770Z,0.80
2023-02-12T20:43:50.909Z,1.37
2023-02-12T20:46:19.916Z,1.67
2023-02-12T20:48:47.057Z,1.77
2023-02-12T20:51:21.281Z,2.00
2023-02-12T20:53:48.895Z,1.57
2023-02-12T20:56:17.337Z,0.87
2023-02-12T20:58:45.125Z,3.43
2023-02-12T21:01:21.029Z,2.50
2023-02-12T21:03:49.025Z,1.10
2023-02-12T21:06:16.242Z,1.93
2023-02-12T21:08:43.425Z,1.90
2023-02-12T21:11:14.713Z,0.80
2023-02-12T21:13:50.386Z,1.53
2023-02-12T21:16:34.016Z,0.73
2023-02-12T21:19:01.628Z,0.93
2023-02-12T21:21:30.461Z,2.10
2023-02-12T21:24:01.350Z,1.10
2023-02-12T21:26:29.599Z,0.60
2023-02-12T21:28:57.735Z,2.07
2023-02-12T21:31:26.594Z,0.90
2023-02-12T21:33:57.604Z,0.97
2023-02-12T21:36:26.502Z,0.47
2023-02-12T21:38:54.770Z,1.70
2023-02-12T21:41:25.816Z,0.53
2023-02-12T21:43:53.927Z,1.27
2023-02-12T21:49:13.149Z,0.70
2023-02-12T21:51:44.896Z,0.43
2023-02-12T21:54:13.196Z,1.23
2023-02-12T21:56:41.067Z,1.60
2023-02-12T21:59:08.679Z,1.60
2023-02-12T22:01:37.103Z,0.90
2023-02-12T22:04:07.641Z,0.80
2023-02-12T22:06:38.226Z,0.90
2023-02-12T22:09:09.035Z,1.67
2023-02-12T22:11:37.757Z,2.70
2023-02-12T22:14:07.154Z,0.70
2023-02-12T22:16:35.715Z,4.40
2023-02-12T22:19:04.164Z,1.70
2023-02-12T22:21:33.989Z,2.67
2023-02-12T22:24:02.370Z,2.30
2023-02-12T22:26:30.268Z,1.47
2023-02-12T22:28:59.884Z,0.97
2023-02-12T22:31:29.558Z,2.27
2023-02-12T22:33:58.066Z,0.90
2023-02-12T22:36:26.016Z,1.70
2023-02-12T22:38:54.196Z,1.67
2023-02-12T22:41:21.733Z,3.77
2023-02-12T22:43:48.865Z,1.53
2023-02-12T22:46:17.286Z,1.00
2023-02-12T22:48:45.079Z,1.50
2023-02-12T22:51:14.271Z,2.17
2023-02-12T22:53:41.555Z,2.77
2023-02-12T22:56:09.205Z,1.07
2023-02-12T22:58:37.999Z,1.00
2023-02-12T23:01:26.195Z,0.93
2023-02-12T23:03:53.682Z,0.93
2023-02-12T23:06:21.913Z,0.50
2023-02-12T23:08:53.827Z,1.37
2023-02-12T23:11:20.998Z,1.37
2023-02-12T23:13:48.352Z,2.20
2023-02-12T23:16:15.856Z,0.93
2023-02-12T23:18:43.439Z,1.80
2023-02-12T23:21:10.537Z,2.47
2023-02-12T23:23:37.590Z,0.83
2023-02-12T23:26:05.097Z,0.83
2023-02-12T23:28:32.772Z,1.10
2023-02-12T23:31:00.335Z,2.13
2023-02-12T23:33:27.636Z,2.33
2023-02-12T23:35:54.912Z,1.10
2023-02-12T23:38:22.014Z,1.23
2023-02-12T23:40:49.124Z,0.53
2023-02-12T23:43:16.366Z,1.83
2023-02-12T23:45:44.564Z,1.60
2023-02-12T23:48:11.758Z,2.97
2023-02-12T23:50:38.861Z,1.33
2023-02-12T23:53:05.928Z,0.73
2023-02-12T23:55:36.436Z,0.87
2023-02-12T23:58:03.870Z,1.33
